»·PEaware :: N737TC KSBA-KBUR

N737TC :: KSBA-KBUR

FLIGHT INFORMATION

Flight Status: Arrived
Operator: Privately registered:
United States
More flights under this callsign
Pilot: Nasser E. (19474)
Aircraft: CESSNA 172 SKYHAWK
(C172)
More flights by this aircraft type
Origin: KSBA Santa Barbara Mun
United States
Destination: KBUR Bob Hope-Burbank
United States
More flights between these airports :: More routes between these airports
Route: +
File this flight plan on PilotEdge
Remarks:
Altitude:
(Current/Filed)
3,000ft
Speed:
(Current/Filed)
0kts
Departed: 04-Oct-18 05:08 PM
Arrived: 04-Oct-18 06:04 PM
Distance/Time
Traveled:
75nm/0:56
Distance/Time
To Go:
Arrived

Flight Plot

Page will automatically refresh every two minutes.


Map Options




Map Legend


Flown Route
Filed Route
Departure Airport
Arrival Airport
Navaid (VOR, NDB)
Fix

Horizontal Profiles

Position Reports

Time Latitude Longitude Heading Altitude Ground
Speed
04-Oct-18 16:56 34.425815 -119.836718 189 10ft 0kts
04-Oct-18 16:57 34.425815 -119.836718 189 10ft 0kts
04-Oct-18 16:58 34.425815 -119.836718 189 10ft 0kts
04-Oct-18 16:59 34.425815 -119.836718 189 10ft 0kts
04-Oct-18 17:00 34.425815 -119.836718 189 10ft 0kts
04-Oct-18 17:01 34.425815 -119.836718 189 10ft 0kts
04-Oct-18 17:02 34.425762 -119.836774 211 10ft 0kts
04-Oct-18 17:03 34.425612 -119.837169 316 10ft 2kts
04-Oct-18 17:04 34.425780 -119.836563 13 10ft 4kts
04-Oct-18 17:05 34.426764 -119.835880 84 10ft 4kts
04-Oct-18 17:06 34.426944 -119.835413 12 10ft 0kts
04-Oct-18 17:07 34.426944 -119.835413 12 10ft 0kts
04-Oct-18 17:08 34.426944 -119.835413 12 10ft 0kts
04-Oct-18 17:09 34.427428 -119.835268 6 10ft 9kts
04-Oct-18 17:10 34.426908 -119.854437 261 552ft 88kts
04-Oct-18 17:11 34.418331 -119.884497 230 1475ft 99kts
04-Oct-18 17:12 34.409624 -119.920994 264 1455ft 117kts
04-Oct-18 17:13 34.405258 -119.954072 260 1442ft 90kts
04-Oct-18 17:14 34.394266 -119.979447 193 2077ft 90kts
04-Oct-18 17:15 34.382273 -119.954942 102 2864ft 105kts
04-Oct-18 17:16 34.375461 -119.918902 105 2937ft 112kts
04-Oct-18 17:17 34.371089 -119.878739 86 3159ft 124kts
04-Oct-18 17:18 34.367826 -119.835141 97 3137ft 127kts
04-Oct-18 17:19 34.363515 -119.791555 90 3054ft 137kts
04-Oct-18 17:20 34.358742 -119.747581 101 2954ft 139kts
04-Oct-18 17:21 34.352136 -119.704188 94 3098ft 126kts
04-Oct-18 17:22 34.347324 -119.660108 98 2970ft 132kts
04-Oct-18 17:23 34.343954 -119.616051 95 2989ft 127kts
04-Oct-18 17:24 34.339913 -119.573201 98 3076ft 128kts
04-Oct-18 17:25 34.334812 -119.530647 97 3070ft 129kts
04-Oct-18 17:26 34.329965 -119.486713 95 2942ft 135kts
04-Oct-18 17:27 34.323843 -119.443265 100 3054ft 126kts
04-Oct-18 17:28 34.317363 -119.399594 103 2942ft 133kts
04-Oct-18 17:29 34.317238 -119.399003 103 2939ft 133kts
04-Oct-18 17:30 34.317238 -119.399003 103 2939ft 133kts
04-Oct-18 17:31 34.317238 -119.399003 103 2939ft 133kts
04-Oct-18 17:32 34.317238 -119.399003 103 2939ft 133kts
04-Oct-18 17:33 34.317238 -119.399003 103 2939ft 133kts
04-Oct-18 17:34 34.317238 -119.399003 103 2939ft 133kts
04-Oct-18 17:35 34.317238 -119.399003 103 2939ft 133kts
04-Oct-18 17:36 34.317238 -119.399003 103 2939ft 133kts
04-Oct-18 17:37 34.317238 -119.399003 103 2939ft 133kts
04-Oct-18 17:38 34.317238 -119.399003 103 2939ft 133kts
04-Oct-18 17:39 34.317238 -119.399003 103 2939ft 133kts
04-Oct-18 17:40 34.313806 -119.374127 93 2998ft 129kts
04-Oct-18 17:41 34.309201 -119.331815 98 3069ft 129kts
04-Oct-18 17:42 34.304075 -119.288233 97 3086ft 130kts
04-Oct-18 17:43 34.295860 -119.245396 102 3054ft 133kts
04-Oct-18 17:44 34.289820 -119.202196 95 3114ft 130kts
04-Oct-18 17:45 34.284118 -119.158323 99 3090ft 131kts
04-Oct-18 17:46 34.278279 -119.114319 99 3031ft 132kts
04-Oct-18 17:47 34.271239 -119.070986 99 3056ft 130kts
04-Oct-18 17:48 34.273797 -119.027087 86 2961ft 135kts
04-Oct-18 17:49 34.270489 -118.983457 98 3038ft 132kts
04-Oct-18 17:50 34.266412 -118.939254 95 3048ft 127kts
04-Oct-18 17:51 34.262157 -118.895888 99 3063ft 130kts
04-Oct-18 17:52 34.256909 -118.852819 89 3112ft 130kts
04-Oct-18 17:53 34.251987 -118.808389 101 3091ft 124kts
04-Oct-18 17:54 34.246101 -118.764911 101 3006ft 131kts
04-Oct-18 17:55 34.241702 -118.721269 98 3022ft 132kts
04-Oct-18 17:56 34.236473 -118.677740 95 3026ft 132kts
04-Oct-18 17:57 34.230663 -118.633883 95 3020ft 129kts
04-Oct-18 17:58 34.227579 -118.591012 104 3112ft 128kts
04-Oct-18 17:59 34.219222 -118.548700 95 3120ft 133kts
04-Oct-18 18:00 34.216208 -118.512070 97 3039ft 114kts
04-Oct-18 18:01 34.205949 -118.477281 111 2697ft 107kts
04-Oct-18 18:02 34.198542 -118.444490 102 2574ft 104kts
04-Oct-18 18:03 34.189609 -118.413126 113 1810ft 91kts
04-Oct-18 18:04 34.196196 -118.388448 77 1325ft 69kts
04-Oct-18 18:05 34.197795 -118.363978 86 741ft 67kts
04-Oct-18 18:06 34.198346 -118.355312 359 707ft 5kts
04-Oct-18 18:07 34.198485 -118.355317 356 707ft 0kts

Navigation Log

Ident Type
Flight plan parsing failed, navigation log unavailable